createdAt,value
2022-11-15T00:00:58.447Z,73.90
2022-11-15T00:03:27.189Z,73.93
2022-11-15T00:05:54.478Z,73.84
2022-11-15T00:08:22.055Z,75.05
2022-11-15T00:11:00.745Z,75.23
2022-11-15T00:13:27.965Z,74.98
2022-11-15T00:15:58.075Z,75.25
2022-11-15T00:18:25.696Z,75.68
2022-11-15T00:20:52.852Z,75.41
2022-11-15T00:23:20.140Z,75.84
2022-11-15T00:25:47.365Z,76.13
2022-11-15T00:28:14.437Z,76.09
2022-11-15T00:30:41.503Z,75.99
2022-11-15T00:33:09.627Z,76.03
2022-11-15T00:35:37.024Z,75.67
2022-11-15T00:38:04.084Z,76.01
2022-11-15T00:40:31.513Z,75.80
2022-11-15T00:42:58.640Z,75.86
2022-11-15T00:45:25.866Z,75.65
2022-11-15T00:47:53.424Z,75.59
2022-11-15T00:50:20.463Z,76.44
2022-11-15T00:52:47.755Z,76.05
2022-11-15T00:55:19.286Z,76.40
2022-11-15T00:57:47.398Z,76.31
2022-11-15T01:00:15.033Z,76.58
2022-11-15T01:02:42.142Z,76.95
2022-11-15T01:05:09.508Z,76.51
2022-11-15T01:07:37.081Z,76.32
2022-11-15T01:10:06.002Z,76.26
2022-11-15T01:12:33.296Z,76.95
2022-11-15T01:15:00.482Z,76.72
2022-11-15T01:17:28.118Z,76.73
2022-11-15T01:19:55.127Z,76.55
2022-11-15T01:22:22.204Z,76.74
2022-11-15T01:24:52.095Z,76.74
2022-11-15T01:27:19.275Z,77.01
2022-11-15T01:29:46.449Z,77.45
2022-11-15T01:32:13.836Z,77.57
2022-11-15T01:34:40.898Z,77.69
2022-11-15T01:37:08.237Z,77.44
2022-11-15T01:39:35.329Z,77.24
2022-11-15T01:42:02.667Z,77.11
2022-11-15T01:44:39.906Z,77.06
2022-11-15T01:47:42.162Z,77.16
2022-11-15T01:50:11.175Z,77.35
2022-11-15T01:52:39.111Z,76.77
2022-11-15T01:55:13.057Z,76.71
2022-11-15T01:57:42.098Z,77.63
2022-11-15T02:00:09.759Z,77.46
2022-11-15T02:02:38.784Z,77.36
2022-11-15T02:05:06.025Z,77.30
2022-11-15T02:07:33.739Z,77.25
2022-11-15T02:10:05.727Z,77.25
2022-11-15T02:12:32.899Z,77.75
2022-11-15T02:15:00.531Z,77.08
2022-11-15T02:18:05.512Z,77.06
2022-11-15T02:20:41.707Z,77.54
2022-11-15T02:23:50.078Z,77.18
2022-11-15T02:26:28.985Z,78.06
2022-11-15T02:29:06.326Z,77.75
2022-11-15T02:31:45.624Z,77.60
2022-11-15T02:34:16.751Z,77.66
2022-11-15T02:36:50.747Z,77.82
2022-11-15T02:39:26.822Z,78.26
2022-11-15T02:42:03.792Z,78.42
2022-11-15T02:44:38.453Z,77.72
2022-11-15T02:47:13.907Z,77.69
2022-11-15T02:49:44.841Z,78.18
2022-11-15T02:52:16.957Z,78.14
2022-11-15T02:54:44.313Z,77.88
2022-11-15T02:57:17.272Z,78.21
2022-11-15T02:59:57.962Z,78.07
2022-11-15T03:03:02.629Z,77.96
2022-11-15T03:05:54.847Z,78.00
2022-11-15T03:08:40.929Z,78.61
2022-11-15T03:11:14.735Z,78.17
2022-11-15T03:14:07.474Z,78.07
2022-11-15T03:17:09.616Z,78.13
2022-11-15T03:19:43.147Z,78.42
2022-11-15T03:22:13.151Z,79.17
2022-11-15T03:24:40.421Z,78.65
2022-11-15T03:27:09.024Z,78.08
2022-11-15T03:29:40.122Z,78.51
2022-11-15T03:32:12.765Z,78.97
2022-11-15T03:34:44.744Z,78.93
2022-11-15T03:37:14.450Z,79.01
2022-11-15T03:39:42.107Z,79.41
2022-11-15T03:42:18.904Z,79.64
2022-11-15T03:45:09.803Z,79.02
2022-11-15T03:47:43.225Z,79.50
2022-11-15T03:50:18.976Z,79.39
2022-11-15T03:52:47.759Z,79.42
2022-11-15T03:55:17.923Z,79.25
2022-11-15T03:57:45.443Z,80.03
2022-11-15T04:00:12.831Z,79.52
2022-11-15T04:02:39.902Z,79.28
2022-11-15T04:05:07.298Z,79.21
2022-11-15T04:07:34.509Z,79.05
2022-11-15T04:10:04.837Z,79.01
2022-11-15T04:12:37.162Z,79.22
2022-11-15T04:15:18.506Z,79.64
2022-11-15T04:17:50.597Z,79.69
2022-11-15T04:20:47.290Z,79.41
2022-11-15T04:23:41.056Z,79.52
2022-11-15T04:26:13.625Z,79.15
2022-11-15T04:29:00.704Z,79.63
2022-11-15T04:31:28.137Z,79.85
2022-11-15T04:33:55.796Z,79.60
2022-11-15T04:36:41.894Z,79.66
2022-11-15T04:39:08.997Z,79.64
2022-11-15T04:41:36.222Z,80.10
2022-11-15T04:44:03.329Z,79.98
2022-11-15T04:46:30.476Z,80.51
2022-11-15T04:48:59.237Z,80.13
2022-11-15T04:51:26.915Z,80.47
2022-11-15T04:53:53.950Z,79.94
2022-11-15T04:56:21.058Z,79.73
2022-11-15T04:58:51.080Z,80.52
2022-11-15T05:01:18.379Z,80.86
2022-11-15T05:04:04.661Z,81.27
2022-11-15T05:06:31.773Z,82.01
2022-11-15T05:08:59.230Z,81.74
2022-11-15T05:11:28.198Z,81.12
2022-11-15T05:13:55.511Z,81.14
2022-11-15T05:16:22.604Z,80.82
2022-11-15T05:18:53.590Z,80.91
2022-11-15T05:21:21.283Z,80.49
2022-11-15T05:23:48.399Z,80.55
2022-11-15T05:26:17.273Z,81.40
2022-11-15T05:28:44.319Z,81.57
2022-11-15T05:31:16.263Z,81.44
2022-11-15T05:33:44.416Z,81.90
2022-11-15T05:36:20.020Z,81.23
2022-11-15T05:38:47.763Z,81.03
2022-11-15T05:41:16.246Z,80.38
2022-11-15T05:43:44.189Z,80.64
2022-11-15T05:46:11.267Z,80.08
2022-11-15T05:48:38.910Z,79.88
2022-11-15T05:51:06.337Z,80.36
2022-11-15T05:53:34.317Z,80.42
2022-11-15T05:56:01.839Z,80.42
2022-11-15T05:58:28.905Z,80.42
2022-11-15T06:00:56.158Z,80.49
2022-11-15T06:03:23.497Z,80.01
2022-11-15T06:05:50.684Z,80.07
2022-11-15T06:08:17.726Z,80.07
2022-11-15T06:10:44.756Z,80.18
2022-11-15T06:13:11.823Z,80.17
2022-11-15T06:15:39.008Z,80.19
2022-11-15T06:18:06.122Z,79.70
2022-11-15T06:20:33.246Z,80.40
2022-11-15T06:23:04.347Z,80.32
2022-11-15T06:25:31.873Z,80.33
2022-11-15T06:27:59.799Z,80.86
2022-11-15T06:30:27.711Z,81.05
2022-11-15T06:33:06.234Z,80.21
2022-11-15T06:35:35.444Z,80.37
2022-11-15T06:38:07.472Z,80.25
2022-11-15T06:40:36.237Z,80.21
2022-11-15T06:43:04.153Z,80.26
2022-11-15T06:45:31.535Z,79.92
2022-11-15T06:47:59.241Z,80.23
2022-11-15T06:50:26.350Z,80.29
2022-11-15T06:52:53.670Z,80.51
2022-11-15T06:55:21.037Z,80.25
2022-11-15T06:57:50.286Z,80.69
2022-11-15T07:00:18.970Z,80.50
2022-11-15T07:02:46.383Z,80.65
2022-11-15T07:05:14.194Z,80.82
2022-11-15T07:07:41.307Z,81.03
2022-11-15T07:10:09.473Z,80.80
2022-11-15T07:12:36.587Z,80.80
2022-11-15T07:15:04.158Z,80.98
2022-11-15T07:17:31.331Z,81.05
2022-11-15T07:19:58.361Z,80.99
2022-11-15T07:22:25.441Z,81.57
2022-11-15T07:24:52.572Z,81.38
2022-11-15T07:27:19.812Z,80.88
2022-11-15T07:29:46.987Z,81.04
2022-11-15T07:32:14.202Z,80.78
2022-11-15T07:34:41.375Z,80.81
2022-11-15T07:37:08.695Z,81.12
2022-11-15T07:39:35.816Z,80.83
2022-11-15T07:42:21.661Z,80.88
2022-11-15T07:44:48.756Z,81.07
2022-11-15T07:47:16.023Z,81.13
2022-11-15T07:49:43.119Z,81.20
2022-11-15T07:52:10.205Z,81.15
2022-11-15T07:54:37.330Z,80.75
2022-11-15T07:57:07.546Z,81.29
2022-11-15T07:59:36.057Z,81.28
2022-11-15T08:02:04.076Z,81.93
2022-11-15T08:04:31.281Z,81.49
2022-11-15T08:06:58.515Z,79.98
2022-11-15T08:09:25.795Z,79.30
2022-11-15T08:11:52.966Z,78.25
2022-11-15T08:14:20.023Z,77.49
2022-11-15T08:16:47.080Z,76.94
2022-11-15T08:19:14.155Z,75.99
2022-11-15T08:21:41.255Z,75.77
2022-11-15T08:24:10.899Z,74.44
2022-11-15T08:26:38.041Z,74.17
2022-11-15T08:29:05.074Z,74.20
2022-11-15T08:31:32.125Z,73.45
2022-11-15T08:33:59.174Z,72.82
2022-11-15T08:36:26.215Z,72.98
2022-11-15T08:38:53.377Z,71.82
2022-11-15T08:41:35.179Z,71.43
2022-11-15T08:44:02.366Z,71.08
2022-11-15T08:46:29.454Z,69.85
2022-11-15T08:48:56.510Z,69.87
2022-11-15T08:51:23.927Z,69.65
2022-11-15T08:53:51.004Z,69.48
2022-11-15T08:56:18.123Z,69.65
2022-11-15T08:58:45.291Z,69.17
2022-11-15T09:01:19.959Z,69.57
2022-11-15T09:03:47.270Z,68.77
2022-11-15T09:06:14.574Z,67.76
2022-11-15T09:08:47.332Z,66.89
2022-11-15T09:11:17.329Z,67.18
2022-11-15T09:13:44.425Z,66.33
2022-11-15T09:16:12.984Z,65.83
2022-11-15T09:18:40.117Z,66.78
2022-11-15T09:21:07.241Z,66.27
2022-11-15T09:23:34.350Z,66.35
2022-11-15T09:26:03.577Z,65.08
2022-11-15T09:28:31.742Z,64.93
2022-11-15T09:31:00.508Z,64.60
2022-11-15T09:33:28.114Z,65.02
2022-11-15T09:35:55.279Z,64.07
2022-11-15T09:38:22.365Z,63.51
2022-11-15T09:40:53.523Z,63.34
2022-11-15T09:43:29.626Z,62.86
2022-11-15T09:46:09.859Z,62.42
2022-11-15T09:48:46.484Z,61.52
2022-11-15T09:51:19.648Z,60.85
2022-11-15T09:56:47.248Z,60.99
2022-11-15T09:59:22.456Z,60.21
2022-11-15T10:02:20.969Z,58.96
2022-11-15T10:04:48.318Z,59.00
2022-11-15T10:07:21.260Z,58.51
2022-11-15T10:10:27.614Z,58.99
2022-11-15T10:12:54.884Z,58.93
2022-11-15T10:15:23.738Z,58.15
2022-11-15T10:18:07.155Z,58.30
2022-11-15T10:20:56.943Z,58.19
2022-11-15T10:23:24.572Z,58.04
2022-11-15T10:26:06.427Z,57.27
2022-11-15T10:28:34.122Z,56.32
2022-11-15T10:31:02.198Z,56.34
2022-11-15T10:33:37.199Z,56.33
2022-11-15T10:36:10.491Z,55.45
2022-11-15T10:38:49.670Z,55.28
2022-11-15T10:41:44.248Z,55.31
2022-11-15T10:44:27.391Z,54.25
2022-11-15T10:46:57.680Z,53.94
2022-11-15T10:49:32.491Z,53.81
2022-11-15T10:52:02.464Z,53.33
2022-11-15T10:54:34.328Z,53.96
2022-11-15T10:57:07.501Z,53.74
2022-11-15T10:59:39.233Z,53.45
2022-11-15T11:02:36.097Z,53.48
2022-11-15T11:05:26.276Z,53.25
2022-11-15T11:08:02.376Z,53.33
2022-11-15T11:10:50.553Z,52.56
2022-11-15T11:13:26.718Z,52.93
2022-11-15T11:16:25.347Z,52.01
2022-11-15T11:19:13.461Z,51.87
2022-11-15T11:21:50.619Z,51.89
2022-11-15T11:24:28.466Z,51.85
2022-11-15T11:27:08.476Z,51.15
2022-11-15T11:29:40.070Z,51.68
2022-11-15T11:32:31.059Z,51.55
2022-11-15T11:35:14.626Z,51.37
2022-11-15T11:37:54.578Z,51.18
2022-11-15T11:40:31.827Z,51.20
2022-11-15T11:43:22.969Z,51.67
2022-11-15T11:46:00.917Z,51.53
2022-11-15T11:48:41.698Z,50.94
2022-11-15T11:51:16.565Z,51.32
2022-11-15T11:53:53.201Z,51.75
2022-11-15T11:56:27.916Z,51.75
2022-11-15T11:58:59.028Z,51.49
2022-11-15T12:01:30.497Z,51.09
2022-11-15T12:04:06.505Z,50.90
2022-11-15T12:06:46.598Z,51.16
2022-11-15T12:09:17.306Z,51.29
2022-11-15T12:11:57.220Z,51.98
2022-11-15T12:14:39.689Z,51.67
2022-11-15T12:17:10.204Z,51.73
2022-11-15T12:19:37.461Z,51.46
2022-11-15T12:22:21.815Z,49.30
2022-11-15T12:24:54.545Z,49.86
2022-11-15T12:27:34.172Z,50.22
2022-11-15T12:30:05.394Z,50.42
2022-11-15T12:32:35.809Z,49.96
2022-11-15T12:35:04.906Z,50.32
2022-11-15T12:37:44.196Z,50.27
2022-11-15T12:40:30.921Z,50.70
2022-11-15T12:43:08.713Z,51.26
2022-11-15T12:45:38.386Z,50.50
2022-11-15T12:48:17.909Z,50.79
2022-11-15T12:50:57.011Z,51.31
2022-11-15T12:53:24.114Z,51.25
2022-11-15T12:56:03.008Z,51.66
2022-11-15T12:58:43.564Z,51.78
2022-11-15T13:01:11.567Z,51.39
2022-11-15T13:04:17.357Z,51.30
2022-11-15T13:06:49.700Z,51.47
2022-11-15T13:09:34.887Z,51.46
2022-11-15T13:12:02.828Z,51.40
2022-11-15T13:14:44.245Z,51.46
2022-11-15T13:17:20.475Z,51.24
2022-11-15T13:19:54.895Z,51.64
2022-11-15T13:22:40.485Z,51.82
2022-11-15T13:25:16.917Z,51.88
2022-11-15T13:27:44.082Z,51.86
2022-11-15T13:30:20.937Z,51.40
2022-11-15T13:32:49.142Z,52.01
2022-11-15T13:35:24.472Z,51.83
2022-11-15T13:37:52.159Z,52.10
2022-11-15T13:40:31.240Z,50.84
2022-11-15T13:42:59.190Z,51.12
2022-11-15T13:45:27.781Z,51.17
2022-11-15T13:47:57.111Z,51.63
2022-11-15T13:50:35.231Z,51.10
2022-11-15T13:53:04.173Z,51.12
2022-11-15T13:55:33.806Z,51.04
2022-11-15T13:58:14.325Z,51.45
2022-11-15T14:00:44.375Z,52.04
2022-11-15T14:03:26.971Z,52.67
2022-11-15T14:06:15.843Z,53.33
2022-11-15T14:09:01.431Z,52.92
2022-11-15T14:11:28.791Z,52.14
2022-11-15T14:14:13.070Z,53.10
2022-11-15T14:16:48.647Z,53.37
2022-11-15T14:19:21.635Z,52.73
2022-11-15T14:22:13.385Z,52.61
2022-11-15T14:24:41.691Z,53.46
2022-11-15T14:27:27.889Z,53.22
2022-11-15T14:29:55.226Z,53.59
2022-11-15T14:32:30.490Z,53.68
2022-11-15T14:35:00.349Z,53.69
2022-11-15T14:37:35.598Z,53.24
2022-11-15T14:40:05.452Z,53.27
2022-11-15T14:42:33.053Z,53.59
2022-11-15T14:45:00.160Z,53.42
2022-11-15T14:47:27.218Z,53.53
2022-11-15T14:49:54.295Z,53.82
2022-11-15T14:52:32.532Z,53.93
2022-11-15T14:55:02.154Z,54.42
2022-11-15T14:57:29.686Z,54.79
2022-11-15T14:59:57.854Z,54.81
2022-11-15T15:02:26.379Z,55.25
2022-11-15T15:04:54.117Z,55.28
2022-11-15T15:07:21.287Z,55.15
2022-11-15T15:09:48.493Z,55.83
2022-11-15T15:12:21.716Z,56.17
2022-11-15T15:14:50.277Z,56.47
2022-11-15T15:17:17.908Z,56.88
2022-11-15T15:19:45.184Z,57.05
2022-11-15T15:22:16.864Z,57.46
2022-11-15T15:24:47.317Z,57.78
2022-11-15T15:27:14.841Z,58.24
2022-11-15T15:29:42.021Z,58.33
2022-11-15T15:32:10.899Z,58.37
2022-11-15T15:34:38.106Z,58.54
2022-11-15T15:37:09.350Z,58.40
2022-11-15T15:39:36.405Z,58.80
2022-11-15T15:42:04.884Z,58.78
2022-11-15T15:44:31.976Z,58.93
2022-11-15T15:46:59.066Z,59.10
2022-11-15T15:49:26.150Z,59.09
2022-11-15T15:51:53.343Z,59.12
2022-11-15T15:54:20.442Z,59.07
2022-11-15T15:56:50.973Z,58.90
2022-11-15T15:59:20.761Z,59.15
2022-11-15T16:01:47.855Z,59.11
2022-11-15T16:04:15.342Z,59.17
2022-11-15T16:06:45.952Z,58.98
2022-11-15T16:09:18.112Z,59.08
2022-11-15T16:11:46.966Z,59.25
2022-11-15T16:14:14.170Z,59.50
2022-11-15T16:16:41.324Z,59.69
2022-11-15T16:19:09.248Z,59.53
2022-11-15T16:21:36.285Z,59.43
2022-11-15T16:24:03.454Z,59.50
2022-11-15T16:26:31.060Z,59.54
2022-11-15T16:28:58.686Z,59.59
2022-11-15T16:31:25.887Z,59.44
2022-11-15T16:33:52.942Z,59.99
2022-11-15T16:36:30.419Z,60.00
2022-11-15T16:38:58.917Z,60.44
2022-11-15T16:41:26.438Z,60.35
2022-11-15T16:43:54.086Z,60.39
2022-11-15T16:46:26.424Z,61.04
2022-11-15T16:48:54.835Z,61.01
2022-11-15T16:51:23.078Z,61.46
2022-11-15T16:53:50.587Z,61.73
2022-11-15T16:56:27.629Z,61.40
2022-11-15T16:58:58.429Z,61.63
2022-11-15T17:01:27.660Z,61.79
2022-11-15T17:03:55.285Z,61.64
2022-11-15T17:06:23.048Z,61.45
2022-11-15T17:08:50.132Z,61.71
2022-11-15T17:11:19.779Z,62.02
2022-11-15T17:13:46.989Z,61.74
2022-11-15T17:16:15.758Z,62.14
2022-11-15T17:18:46.986Z,62.11
2022-11-15T17:21:16.758Z,62.45
2022-11-15T17:23:43.900Z,62.35
2022-11-15T17:26:28.710Z,62.73
2022-11-15T17:28:57.566Z,62.98
2022-11-15T17:31:25.655Z,63.08
2022-11-15T17:33:52.822Z,62.94
2022-11-15T17:36:20.043Z,63.36
2022-11-15T17:38:55.428Z,63.45
2022-11-15T17:41:26.514Z,63.55
2022-11-15T17:43:53.713Z,63.92
2022-11-15T17:46:21.370Z,63.80
2022-11-15T17:48:49.293Z,63.44
2022-11-15T17:51:17.707Z,63.69
2022-11-15T17:53:46.925Z,63.78
2022-11-15T17:56:16.151Z,64.09
2022-11-15T17:58:48.406Z,64.76
2022-11-15T18:01:20.538Z,65.34
2022-11-15T18:03:48.488Z,65.27
2022-11-15T18:06:16.416Z,65.38
2022-11-15T18:08:45.723Z,64.97
2022-11-15T18:11:17.429Z,65.63
2022-11-15T18:13:51.927Z,65.67
2022-11-15T18:16:24.687Z,66.00
2022-11-15T18:18:52.227Z,65.76
2022-11-15T18:21:25.283Z,66.31
2022-11-15T18:23:57.557Z,66.57
2022-11-15T18:26:27.605Z,66.23
2022-11-15T18:28:56.920Z,67.51
2022-11-15T18:31:27.160Z,67.16
2022-11-15T18:33:54.398Z,67.60
2022-11-15T18:36:27.204Z,68.01
2022-11-15T18:39:02.733Z,68.04
2022-11-15T18:41:31.063Z,68.54
2022-11-15T18:44:00.565Z,68.29
2022-11-15T18:46:30.787Z,68.27
2022-11-15T18:48:59.980Z,68.81
2022-11-15T18:51:32.286Z,68.49
2022-11-15T18:54:01.254Z,68.92
2022-11-15T18:56:30.267Z,69.64
2022-11-15T18:58:59.260Z,69.12
2022-11-15T19:01:29.065Z,69.64
2022-11-15T19:03:57.756Z,69.42
2022-11-15T19:06:27.023Z,69.68
2022-11-15T19:08:56.365Z,69.98
2022-11-15T19:11:31.729Z,70.00
2022-11-15T19:14:04.115Z,69.78
2022-11-15T19:16:33.613Z,69.94
2022-11-15T19:19:06.476Z,70.18
2022-11-15T19:21:34.208Z,70.12
2022-11-15T19:24:01.703Z,70.15
2022-11-15T19:26:29.358Z,70.38
2022-11-15T19:29:01.100Z,70.14
2022-11-15T19:31:31.303Z,70.68
2022-11-15T19:34:00.040Z,71.08
2022-11-15T19:36:35.378Z,71.18
2022-11-15T19:39:08.136Z,70.45
2022-11-15T19:41:37.877Z,70.41
2022-11-15T19:44:06.139Z,70.56
2022-11-15T19:46:33.821Z,70.73
2022-11-15T19:49:01.068Z,70.33
2022-11-15T19:51:30.348Z,70.77
2022-11-15T19:53:59.978Z,70.82
2022-11-15T19:56:27.027Z,71.29
2022-11-15T19:58:55.448Z,71.81
2022-11-15T20:01:28.293Z,71.91
2022-11-15T20:03:57.694Z,71.41
2022-11-15T20:06:28.617Z,72.21
2022-11-15T20:08:56.127Z,71.88
2022-11-15T20:11:23.400Z,71.56
2022-11-15T20:13:50.601Z,71.75
2022-11-15T20:16:22.172Z,71.06
2022-11-15T20:18:50.426Z,71.09
2022-11-15T20:21:18.048Z,70.94
2022-11-15T20:23:45.162Z,71.51
2022-11-15T20:26:15.324Z,70.94
2022-11-15T20:28:44.337Z,70.78
2022-11-15T20:31:11.962Z,71.68
2022-11-15T20:33:39.749Z,71.55
2022-11-15T20:36:12.238Z,71.02
2022-11-15T20:38:43.442Z,71.56
2022-11-15T20:41:14.389Z,71.64
2022-11-15T20:43:43.761Z,71.69
2022-11-15T20:46:12.460Z,70.96
2022-11-15T20:48:40.106Z,71.61
2022-11-15T20:51:16.255Z,71.30
2022-11-15T20:53:44.585Z,71.96
2022-11-15T20:56:14.362Z,71.81
2022-11-15T20:58:42.130Z,71.44
2022-11-15T21:01:11.162Z,71.36
2022-11-15T21:03:38.314Z,71.55
2022-11-15T21:06:05.926Z,72.44
2022-11-15T21:08:53.421Z,71.91
2022-11-15T21:11:39.523Z,72.00
2022-11-15T21:14:09.600Z,71.69
2022-11-15T21:16:37.869Z,72.01
2022-11-15T21:19:05.990Z,72.29
2022-11-15T21:21:33.380Z,72.61
2022-11-15T21:24:03.132Z,72.68
2022-11-15T21:26:30.452Z,72.66
2022-11-15T21:28:57.515Z,72.76
2022-11-15T21:31:24.792Z,73.13
2022-11-15T21:33:51.899Z,72.95
2022-11-15T21:36:18.932Z,72.89
2022-11-15T21:38:45.978Z,73.22
2022-11-15T21:41:13.034Z,72.79
2022-11-15T21:43:40.080Z,73.11
2022-11-15T21:46:07.487Z,73.21
2022-11-15T21:48:35.705Z,73.45
2022-11-15T21:51:07.679Z,73.27
2022-11-15T21:53:35.101Z,74.05
2022-11-15T21:56:02.726Z,73.70
2022-11-15T21:58:31.092Z,73.59
2022-11-15T22:01:17.850Z,73.28
2022-11-15T22:03:45.284Z,73.66
2022-11-15T22:06:17.424Z,74.27
2022-11-15T22:08:45.839Z,73.96
2022-11-15T22:11:13.643Z,74.52
2022-11-15T22:13:40.894Z,74.05
2022-11-15T22:16:08.838Z,74.31
2022-11-15T22:18:36.336Z,74.32
2022-11-15T22:21:06.082Z,73.66
2022-11-15T22:23:33.906Z,73.37
2022-11-15T22:26:01.635Z,74.10
2022-11-15T22:28:29.533Z,74.06
2022-11-15T22:30:57.143Z,74.26
2022-11-15T22:33:27.621Z,74.32
2022-11-15T22:35:55.344Z,74.93
2022-11-15T22:38:23.249Z,74.98
2022-11-15T22:40:50.987Z,74.84
2022-11-15T22:43:19.511Z,75.07
2022-11-15T22:45:53.572Z,75.42
2022-11-15T22:48:22.850Z,75.87
2022-11-15T22:50:50.887Z,75.31
2022-11-15T22:53:18.606Z,75.00
2022-11-15T22:55:50.847Z,74.38
2022-11-15T22:58:18.167Z,74.16
2022-11-15T23:00:48.967Z,73.96
2022-11-15T23:03:16.478Z,73.44
2022-11-15T23:05:43.590Z,73.40
2022-11-15T23:08:10.783Z,72.65
2022-11-15T23:10:57.690Z,72.91
2022-11-15T23:13:26.758Z,72.40
2022-11-15T23:16:23.012Z,72.30
2022-11-15T23:18:51.362Z,72.10
2022-11-15T23:21:49.701Z,72.04
2022-11-15T23:24:17.611Z,71.67
2022-11-15T23:26:46.021Z,71.35
2022-11-15T23:29:14.824Z,71.88
2022-11-15T23:32:02.561Z,71.63
2022-11-15T23:34:31.347Z,71.52
2022-11-15T23:36:59.246Z,71.46
2022-11-15T23:39:26.742Z,71.79
2022-11-15T23:41:53.907Z,71.38
2022-11-15T23:44:21.164Z,71.38
2022-11-15T23:46:48.282Z,71.20
2022-11-15T23:49:15.343Z,71.01
2022-11-15T23:51:42.439Z,71.20
2022-11-15T23:54:10.151Z,70.87
2022-11-15T23:56:37.689Z,71.06
2022-11-15T23:59:04.984Z,71.13
